TimeCDT,TemperatureF,Dew PointF,Humidity,Sea Level PressureIn,VisibilityMPH,Wind Direction,Wind SpeedMPH,Gust SpeedMPH,PrecipitationIn,Events,Conditions,WindDirDegrees,DateUTC
12:53 AM,73.0,68.0,84,29.77,10.0,WSW,5.8,-,N/A,,Clear,250,2013-07-07 05:53:00
1:53 AM,71.1,66.9,87,29.79,10.0,West,8.1,-,N/A,,Clear,270,2013-07-07 06:53:00
2:53 AM,70.0,66.9,90,29.79,9.0,West,4.6,-,N/A,,Clear,270,2013-07-07 07:53:00
3:53 AM,71.1,66.9,87,29.79,10.0,West,5.8,-,N/A,,Clear,270,2013-07-07 08:53:00
4:53 AM,69.1,66.9,93,29.79,8.0,NW,6.9,-,N/A,,Clear,310,2013-07-07 09:53:00
5:53 AM,68.0,66.0,93,29.80,8.0,WNW,5.8,-,N/A,,Clear,300,2013-07-07 10:53:00
6:53 AM,70.0,66.9,90,29.83,6.0,West,5.8,-,N/A,,Clear,260,2013-07-07 11:53:00
7:53 AM,72.0,68.0,87,29.84,7.0,West,3.5,-,N/A,,Clear,280,2013-07-07 12:53:00
8:53 AM,75.9,70.0,82,29.85,10.0,NW,5.8,-,N/A,,Clear,310,2013-07-07 13:53:00
9:53 AM,80.1,71.1,74,29.87,10.0,NNW,8.1,-,N/A,,Clear,340,2013-07-07 14:53:00
10:53 AM,80.1,71.1,74,29.88,10.0,NNW,5.8,-,N/A,,Clear,340,2013-07-07 15:53:00
11:53 AM,80.1,71.1,74,29.89,10.0,NNW,3.5,-,N/A,,Clear,330,2013-07-07 16:53:00
12:53 PM,81.0,72.0,74,29.89,10.0,Calm,Calm,-,0.00,Rain,Light Rain,0,2013-07-07 17:53:00
1:53 PM,81.0,72.0,74,29.89,10.0,East,3.5,-,0.00,,Overcast,80,2013-07-07 18:53:00
2:07 PM,80.6,71.6,74,29.93,10.0,NNE,3.5,-,N/A,,Overcast,30,2013-07-07 19:07:00
2:25 PM,84.2,73.4,70,29.91,10.0,ENE,5.8,-,N/A,,Mostly Cloudy,60,2013-07-07 19:25:00
2:53 PM,84.0,73.0,69,29.87,10.0,NE,5.8,-,N/A,,Scattered Clouds,40,2013-07-07 19:53:00
3:53 PM,84.0,72.0,67,29.88,10.0,ENE,9.2,-,N/A,,Partly Cloudy,60,2013-07-07 20:53:00
4:24 PM,84.2,71.6,66,29.93,10.0,Variable,4.6,-,N/A,Thunderstorm,Scattered Clouds,0,2013-07-07 21:24:00
4:53 PM,71.1,66.0,84,29.91,1.5,NNW,25.3,47.2,0.11,Rain-Thunderstorm,Heavy Thunderstorms and Rain,340,2013-07-07 21:53:00
4:57 PM,69.8,66.2,88,29.96,0.5,NNW,35.7,48.3,0.19,Fog-Rain-Thunderstorm,Heavy Thunderstorms and Rain,340,2013-07-07 21:57:00
5:12 PM,68.0,66.2,94,29.98,2.0,North,20.7,35.7,0.37,Rain-Thunderstorm,Light Thunderstorms and Rain,10,2013-07-07 22:12:00
5:14 PM,68.0,66.2,94,29.99,2.5,North,16.1,-,0.37,Rain-Thunderstorm,Light Thunderstorms and Rain,10,2013-07-07 22:14:00
5:21 PM,68.0,66.2,94,29.98,9.0,North,16.1,-,0.37,Rain-Thunderstorm,Light Thunderstorms and Rain,10,2013-07-07 22:21:00
5:31 PM,66.2,66.2,100,29.98,10.0,North,12.7,-,0.37,Rain-Thunderstorm,Light Rain,10,2013-07-07 22:31:00
5:53 PM,70.0,66.9,90,29.95,10.0,NNE,13.8,-,0.37,Rain,Light Rain,30,2013-07-07 22:53:00
6:53 PM,70.0,66.0,87,29.93,10.0,ENE,16.1,20.7,0.00,,Mostly Cloudy,60,2013-07-07 23:53:00
7:53 PM,71.1,66.0,84,29.93,10.0,ESE,9.2,-,N/A,,Mostly Cloudy,110,2013-07-08 00:53:00
8:53 PM,70.0,66.0,87,29.93,10.0,East,6.9,-,N/A,,Clear,100,2013-07-08 01:53:00
9:53 PM,69.1,66.0,90,29.91,10.0,SSE,3.5,-,N/A,,Clear,160,2013-07-08 02:53:00
10:53 PM,66.9,64.9,93,29.94,10.0,South,5.8,-,N/A,,Clear,170,2013-07-08 03:53:00
11:53 PM,64.0,63.0,96,29.96,9.0,Calm,Calm,-,N/A,,Clear,0,2013-07-08 04:53:00